createdAt,value
2023-03-23T15:59:10.941Z,24.40
2023-03-23T16:01:41.175Z,24.40
2023-03-23T16:04:13.496Z,24.30
2023-03-23T16:06:41.552Z,23.90
2023-03-23T16:09:13.400Z,23.80
2023-03-23T16:11:40.749Z,23.70
2023-03-23T16:14:08.351Z,23.50
2023-03-23T16:16:50.274Z,23.50
2023-03-23T16:19:20.408Z,23.40
2023-03-23T16:21:47.887Z,23.50
2023-03-23T16:24:15.159Z,23.40
2023-03-23T16:26:42.481Z,23.40
2023-03-23T16:29:26.209Z,23.30
2023-03-23T16:31:56.080Z,23.20
2023-03-23T16:34:23.809Z,23.00
2023-03-23T16:36:51.154Z,22.80
2023-03-23T16:39:19.230Z,22.50
2023-03-23T16:41:46.411Z,22.20
2023-03-23T16:44:13.639Z,22.00
2023-03-23T16:46:41.200Z,21.80
2023-03-23T16:49:08.515Z,21.60
2023-03-23T16:51:35.958Z,21.40
2023-03-23T16:54:03.299Z,21.30
2023-03-23T16:56:30.930Z,21.20
2023-03-23T16:58:58.318Z,21.10
2023-03-23T17:01:25.812Z,21.00
2023-03-23T17:03:54.395Z,20.90
2023-03-23T17:06:21.818Z,20.90
2023-03-23T17:08:49.069Z,20.80
2023-03-23T17:11:16.636Z,20.80
2023-03-23T17:13:43.970Z,20.80
2023-03-23T17:16:11.371Z,20.70
2023-03-23T17:18:38.662Z,20.60
2023-03-23T17:21:06.807Z,20.60
2023-03-23T17:23:34.401Z,20.50
2023-03-23T17:26:01.799Z,20.50
2023-03-23T17:28:29.115Z,20.50
2023-03-23T17:30:56.535Z,20.40
2023-03-23T17:33:23.839Z,20.40
2023-03-23T17:35:52.116Z,20.30
2023-03-23T17:38:20.188Z,20.30
2023-03-23T17:40:47.609Z,20.30
2023-03-23T17:43:14.822Z,20.20
2023-03-23T17:45:44.360Z,20.10
2023-03-23T17:48:13.202Z,20.00
2023-03-23T17:50:41.215Z,19.90
2023-03-23T17:53:08.469Z,19.90
2023-03-23T17:55:36.229Z,19.90
2023-03-23T17:58:03.482Z,19.80
2023-03-23T18:00:31.064Z,19.80
2023-03-23T18:02:58.455Z,19.80
2023-03-23T18:05:27.930Z,19.80
2023-03-23T18:07:55.344Z,19.80
2023-03-23T18:10:22.635Z,19.80
2023-03-23T18:12:51.589Z,19.80
2023-03-23T18:15:19.175Z,19.80
2023-03-23T18:17:48.351Z,19.70
2023-03-23T18:20:15.889Z,19.70
2023-03-23T18:22:43.089Z,19.60
2023-03-23T18:25:10.384Z,19.60
2023-03-23T18:27:39.042Z,19.70
2023-03-23T18:30:07.471Z,19.70
2023-03-23T18:32:40.535Z,19.60
2023-03-23T18:35:10.854Z,19.60
2023-03-23T18:37:43.067Z,19.60
2023-03-23T18:40:11.404Z,19.50
2023-03-23T18:42:41.916Z,19.60
2023-03-23T18:45:09.888Z,19.50
2023-03-23T18:47:38.681Z,19.50
2023-03-23T18:50:08.322Z,19.40
2023-03-23T18:52:36.063Z,19.40
2023-03-23T18:55:04.040Z,19.30
2023-03-23T18:57:31.478Z,19.20
2023-03-23T18:59:58.749Z,19.20
2023-03-23T19:02:26.031Z,19.10
2023-03-23T19:04:53.685Z,19.10
2023-03-23T19:07:21.076Z,19.00
2023-03-23T19:09:48.397Z,19.00
2023-03-23T19:12:16.136Z,19.00
2023-03-23T19:14:43.857Z,19.00
2023-03-23T19:17:11.580Z,19.00
2023-03-23T19:19:39.118Z,18.90
2023-03-23T19:22:08.567Z,18.90
2023-03-23T19:24:36.564Z,18.90
2023-03-23T19:27:04.055Z,18.90
2023-03-23T19:29:31.619Z,18.80
2023-03-23T19:31:59.093Z,18.80
2023-03-23T19:34:28.179Z,18.80
2023-03-23T19:37:04.127Z,18.70
2023-03-23T19:39:34.250Z,18.70
2023-03-23T19:42:02.073Z,18.60
2023-03-23T19:44:29.550Z,18.60
2023-03-23T19:46:57.865Z,18.50
2023-03-23T19:49:25.675Z,18.50
2023-03-23T19:52:09.061Z,18.50
2023-03-23T19:54:39.473Z,18.50
2023-03-23T19:57:08.146Z,18.50
2023-03-23T19:59:36.453Z,18.50
2023-03-23T20:02:04.099Z,18.50
2023-03-23T20:04:31.765Z,18.60
2023-03-23T20:07:00.552Z,18.50
2023-03-23T20:09:28.560Z,18.50
2023-03-23T20:12:01.886Z,18.40
2023-03-23T20:14:29.435Z,18.40
2023-03-23T20:16:56.859Z,18.40
2023-03-23T20:19:24.311Z,18.40
2023-03-23T20:21:52.297Z,18.30
2023-03-23T20:24:20.152Z,18.30
2023-03-23T20:26:47.704Z,18.20
2023-03-23T20:29:15.118Z,18.10
2023-03-23T20:31:42.561Z,18.10
2023-03-23T20:34:14.409Z,18.10
2023-03-23T20:36:45.241Z,18.10
2023-03-23T20:39:23.355Z,18.10
2023-03-23T20:41:54.491Z,18.10
2023-03-23T20:44:23.371Z,18.00
2023-03-23T20:46:52.430Z,18.00
2023-03-23T20:49:20.914Z,17.90
2023-03-23T20:51:49.078Z,17.90
2023-03-23T20:54:18.731Z,17.90
2023-03-23T20:56:47.073Z,17.90
2023-03-23T20:59:15.961Z,17.80
2023-03-23T21:01:44.673Z,17.80
2023-03-23T21:04:18.777Z,17.80
2023-03-23T21:06:49.126Z,17.80
2023-03-23T21:09:17.674Z,17.80
2023-03-23T21:11:45.863Z,17.80
2023-03-23T21:14:13.811Z,17.60
2023-03-23T21:16:41.950Z,17.50
2023-03-23T21:19:09.746Z,17.50
2023-03-23T21:21:37.246Z,17.50
2023-03-23T21:24:04.701Z,17.40
2023-03-23T21:26:31.996Z,17.40
2023-03-23T21:29:00.471Z,17.30
2023-03-23T21:31:33.398Z,17.20
2023-03-23T21:34:01.411Z,17.20
2023-03-23T21:36:29.379Z,17.10
2023-03-23T21:38:57.372Z,17.00
2023-03-23T21:41:26.052Z,16.90
2023-03-23T21:43:54.239Z,16.90
2023-03-23T21:46:21.600Z,16.70
2023-03-23T21:48:51.693Z,16.60
2023-03-23T21:51:24.048Z,16.50
2023-03-23T21:53:54.404Z,16.50
2023-03-23T21:56:24.708Z,16.40
2023-03-23T21:58:52.939Z,16.20
2023-03-23T22:01:21.467Z,16.10
2023-03-23T22:04:07.747Z,16.10
2023-03-23T22:06:53.826Z,16.10
2023-03-23T22:09:21.073Z,16.10
2023-03-23T22:11:48.306Z,16.20
2023-03-23T22:14:15.562Z,16.30
2023-03-23T22:16:42.941Z,16.40
2023-03-23T22:19:10.352Z,16.50
2023-03-23T22:21:38.289Z,16.60
2023-03-23T22:24:06.000Z,16.60
2023-03-23T22:26:33.361Z,16.60
2023-03-23T22:29:01.825Z,16.60
2023-03-23T22:31:34.184Z,16.60
2023-03-23T22:34:03.715Z,16.60
2023-03-23T22:36:33.456Z,16.60
2023-03-23T22:39:01.650Z,16.60
2023-03-23T22:41:32.016Z,16.70
2023-03-23T22:43:59.665Z,16.60
2023-03-23T22:46:27.383Z,16.60
2023-03-23T22:48:54.932Z,16.60
2023-03-23T22:51:23.955Z,16.70
2023-03-23T22:53:51.333Z,16.70
2023-03-23T22:56:20.193Z,16.70
2023-03-23T22:58:47.861Z,16.70
2023-03-23T23:01:20.868Z,16.70
2023-03-23T23:03:48.771Z,16.70
2023-03-23T23:06:17.492Z,16.70
2023-03-23T23:08:46.806Z,16.60
2023-03-23T23:11:16.449Z,16.50
2023-03-23T23:13:44.971Z,16.40
2023-03-23T23:16:14.208Z,16.30
2023-03-23T23:18:41.954Z,16.10
2023-03-23T23:21:12.638Z,16.00
2023-03-23T23:23:40.600Z,16.00
2023-03-23T23:26:08.579Z,15.90
2023-03-23T23:28:36.548Z,15.90
2023-03-23T23:31:06.374Z,15.80
2023-03-23T23:33:33.666Z,15.90
2023-03-23T23:36:02.480Z,15.90
2023-03-23T23:38:29.783Z,15.90
2023-03-23T23:41:01.245Z,15.90
2023-03-23T23:43:28.501Z,15.90
2023-03-23T23:45:56.644Z,15.90
2023-03-23T23:48:24.352Z,16.00
2023-03-23T23:50:52.113Z,16.00
2023-03-23T23:53:23.028Z,16.00
2023-03-23T23:55:50.422Z,16.00
2023-03-23T23:58:18.344Z,16.00
